createdAt,value
2018-08-03T00:01:09.495Z,101062.27
2018-08-03T00:03:37.572Z,101063.91
2018-08-03T00:06:05.652Z,101054.58
2018-08-03T00:08:33.722Z,101057.77
2018-08-03T00:11:01.798Z,101057.54
2018-08-03T00:13:29.874Z,101050.31
2018-08-03T00:15:57.931Z,101051.16
2018-08-03T00:18:26.017Z,101052.91
2018-08-03T00:20:54.146Z,101055.95
2018-08-03T00:23:22.250Z,101054.88
2018-08-03T00:25:50.343Z,101054.14
2018-08-03T00:28:18.395Z,101057.19
2018-08-03T00:30:46.488Z,101055.29
2018-08-03T00:33:14.549Z,101054.37
2018-08-03T00:35:42.631Z,101048.80
2018-08-03T00:38:10.686Z,101046.00
2018-08-03T00:40:38.787Z,101049.34
2018-08-03T00:43:07.028Z,101048.66
2018-08-03T00:45:35.096Z,101043.25
2018-08-03T00:48:03.172Z,101051.25
2018-08-03T00:50:31.245Z,101052.25
2018-08-03T00:52:59.302Z,101047.14
2018-08-03T00:55:27.342Z,101049.09
2018-08-03T00:57:55.410Z,101049.88
2018-08-03T01:00:23.471Z,101050.71
2018-08-03T01:02:51.527Z,101048.51
2018-08-03T01:05:19.799Z,101042.17
2018-08-03T01:07:47.838Z,101045.20
2018-08-03T01:10:15.946Z,101046.58
2018-08-03T01:12:46.151Z,101047.17
2018-08-03T01:15:14.224Z,101040.02
2018-08-03T01:17:42.322Z,101047.78
2018-08-03T01:20:10.370Z,101051.94
2018-08-03T01:22:38.612Z,101051.35
2018-08-03T01:25:07.023Z,101048.13
2018-08-03T01:27:35.074Z,101045.38
2018-08-03T01:30:03.168Z,101044.25
2018-08-03T01:32:31.219Z,101045.09
2018-08-03T01:34:59.258Z,101046.22
2018-08-03T01:37:27.314Z,101046.52
2018-08-03T01:39:55.369Z,101045.98
2018-08-03T01:42:23.438Z,101052.59
2018-08-03T01:44:51.504Z,101045.73
2018-08-03T01:47:19.542Z,101051.47
2018-08-03T01:49:47.619Z,101049.30
2018-08-03T01:52:15.668Z,101047.15
2018-08-03T01:54:43.730Z,101046.36
2018-08-03T01:57:11.783Z,101042.27
2018-08-03T01:59:39.946Z,101043.05
2018-08-03T02:02:08.005Z,101040.89
2018-08-03T02:04:36.058Z,101048.83
2018-08-03T02:07:04.120Z,101050.48
2018-08-03T02:09:32.175Z,101048.83
2018-08-03T02:12:00.236Z,101056.25
2018-08-03T02:14:28.308Z,101051.31
2018-08-03T02:16:56.386Z,101049.41
2018-08-03T02:19:24.443Z,101054.05
2018-08-03T02:21:52.487Z,101050.77
2018-08-03T02:24:20.542Z,101054.09
2018-08-03T02:26:48.578Z,101051.92
2018-08-03T02:29:16.637Z,101052.45
2018-08-03T02:31:44.703Z,101052.45
2018-08-03T02:34:12.776Z,101047.81
2018-08-03T02:36:40.873Z,101051.38
2018-08-03T02:39:10.380Z,101048.89
2018-08-03T02:41:38.761Z,101050.83
2018-08-03T02:44:07.329Z,101053.86
2018-08-03T02:46:35.649Z,101051.94
2018-08-03T02:49:03.724Z,101057.68
2018-08-03T02:51:31.861Z,101051.94
2018-08-03T02:54:00.129Z,101049.22
2018-08-03T02:56:28.186Z,101048.65
2018-08-03T02:58:56.244Z,101049.50
2018-08-03T03:01:24.300Z,101048.39
2018-08-03T03:03:52.425Z,101048.39
2018-08-03T03:06:20.492Z,101053.05
2018-08-03T03:08:48.571Z,101054.96
2018-08-03T03:11:16.667Z,101064.28
2018-08-03T03:13:44.776Z,101063.45
2018-08-03T03:16:12.840Z,101059.89
2018-08-03T03:18:40.884Z,101061.53
2018-08-03T03:21:08.963Z,101061.83
2018-08-03T03:23:37.038Z,101054.17
2018-08-03T03:26:05.188Z,101053.87
2018-08-03T03:28:33.230Z,101051.43
2018-08-03T03:31:01.317Z,101052.76
2018-08-03T03:33:29.402Z,101066.45
2018-08-03T03:35:57.495Z,101061.28
2018-08-03T03:38:25.663Z,101062.08
2018-08-03T03:40:53.730Z,101066.49
2018-08-03T03:43:21.766Z,101070.58
2018-08-03T03:45:49.857Z,101066.47
2018-08-03T03:48:17.985Z,101066.45
2018-08-03T03:50:46.045Z,101067.00
2018-08-03T03:53:14.094Z,101063.45
2018-08-03T03:55:42.152Z,101070.58
2018-08-03T03:58:10.203Z,101068.38
2018-08-03T04:00:38.302Z,101068.63
2018-08-03T04:03:06.403Z,101065.62
2018-08-03T04:05:34.498Z,101070.00
2018-08-03T04:08:02.555Z,101070.83
2018-08-03T04:10:30.802Z,101067.22
2018-08-03T04:12:58.883Z,101066.14
2018-08-03T04:15:26.953Z,101066.72
2018-08-03T04:17:54.999Z,101073.82
2018-08-03T04:20:23.098Z,101076.27
2018-08-03T04:22:51.140Z,101075.47
2018-08-03T04:25:19.215Z,101075.17
2018-08-03T04:27:47.269Z,101078.20
2018-08-03T04:30:15.374Z,101082.84
2018-08-03T04:32:43.503Z,101074.91
2018-08-03T04:35:11.571Z,101082.02
2018-08-03T04:37:39.642Z,101088.87
2018-08-03T04:40:07.705Z,101088.59
2018-08-03T04:42:35.880Z,101088.36
2018-08-03T04:45:03.887Z,101090.55
2018-08-03T04:47:31.954Z,101089.16
2018-08-03T04:50:00.158Z,101088.61
2018-08-03T04:52:28.224Z,101090.78
2018-08-03T04:54:56.337Z,101092.98
2018-08-03T04:57:24.455Z,101086.97
2018-08-03T04:59:52.516Z,101096.28
2018-08-03T05:02:20.560Z,101087.25
2018-08-03T05:04:48.633Z,101085.06
2018-08-03T05:07:16.674Z,101092.17
2018-08-03T05:09:44.720Z,101086.70
2018-08-03T05:12:12.832Z,101095.45
2018-08-03T05:14:40.863Z,101091.92
2018-08-03T05:17:08.940Z,101092.19
2018-08-03T05:19:36.984Z,101093.27
2018-08-03T05:22:05.044Z,101097.12
2018-08-03T05:24:33.107Z,101095.75
2018-08-03T05:27:01.175Z,101100.97
2018-08-03T05:29:29.252Z,101100.67
2018-08-03T05:31:57.330Z,101101.79
2018-08-03T05:34:25.407Z,101091.65
2018-08-03T05:36:53.465Z,101101.50
2018-08-03T05:39:21.540Z,101094.69
2018-08-03T05:41:49.622Z,101092.22
2018-08-03T05:44:17.692Z,101091.95
2018-08-03T05:46:45.757Z,101098.24
2018-08-03T05:49:13.841Z,101093.86
2018-08-03T05:51:41.947Z,101094.40
2018-08-03T05:54:10.020Z,101098.77
2018-08-03T05:56:38.108Z,101104.25
2018-08-03T05:59:06.295Z,101105.05
2018-08-03T06:01:34.398Z,101103.41
2018-08-03T06:04:02.498Z,101106.40
2018-08-03T06:06:30.507Z,101107.77
2018-08-03T06:08:58.567Z,101109.66
2018-08-03T06:11:26.643Z,101107.98
2018-08-03T06:13:54.715Z,101108.48
2018-08-03T06:16:22.784Z,101107.65
2018-08-03T06:18:50.859Z,101108.14
2018-08-03T06:21:18.955Z,101109.47
2018-08-03T06:23:47.031Z,101112.48
2018-08-03T06:26:15.155Z,101114.13
2018-08-03T06:28:43.194Z,101111.09
2018-08-03T06:31:13.159Z,101114.91
2018-08-03T06:33:41.235Z,101111.32
2018-08-03T06:36:09.316Z,101113.23
2018-08-03T06:38:37.386Z,101110.38
2018-08-03T06:41:05.525Z,101110.05
2018-08-03T06:43:33.604Z,101109.20
2018-08-03T06:46:01.641Z,101112.73
2018-08-03T06:48:29.798Z,101116.49
2018-08-03T06:50:57.807Z,101116.98
2018-08-03T06:53:26.046Z,101120.28
2018-08-03T06:55:54.398Z,101122.39
2018-08-03T06:58:22.513Z,101115.91
2018-08-03T07:00:50.591Z,101120.03
2018-08-03T07:03:18.643Z,101115.80
2018-08-03T07:05:46.905Z,101108.13
2018-08-03T07:08:15.035Z,101113.03
2018-08-03T07:10:43.112Z,101107.95
2018-08-03T07:13:11.218Z,101109.02
2018-08-03T07:15:39.392Z,101107.50
2018-08-03T07:18:07.905Z,101110.58
2018-08-03T07:20:36.020Z,101112.36
2018-08-03T07:23:04.071Z,101111.63
2018-08-03T07:25:32.388Z,101102.00
2018-08-03T07:28:00.247Z,101112.59
2018-08-03T07:30:28.335Z,101106.25
2018-08-03T07:33:03.062Z,101104.87
2018-08-03T07:35:31.192Z,101103.45
2018-08-03T07:37:59.244Z,101108.81
2018-08-03T07:40:27.291Z,101104.87
2018-08-03T07:42:55.522Z,101100.36
2018-08-03T07:45:23.551Z,101111.02
2018-08-03T07:48:20.355Z,101108.02
2018-08-03T07:51:20.347Z,101107.94
2018-08-03T07:53:52.279Z,101107.55
2018-08-03T07:56:20.428Z,101100.20
2018-08-03T07:58:48.630Z,101104.46
2018-08-03T08:01:19.850Z,101098.06
2018-08-03T08:03:57.104Z,101097.63
2018-08-03T08:06:25.779Z,101093.28
2018-08-03T08:08:53.835Z,101095.05
2018-08-03T08:11:21.930Z,101090.60
2018-08-03T08:13:50.235Z,101085.16
2018-08-03T08:16:18.278Z,101083.98
2018-08-03T08:18:46.342Z,101077.75
2018-08-03T08:21:14.429Z,101080.55
2018-08-03T08:23:42.729Z,101071.23
2018-08-03T08:26:13.918Z,101075.15
2018-08-03T08:28:41.950Z,101061.95
2018-08-03T08:31:10.034Z,101058.97
2018-08-03T08:33:38.142Z,101063.38
2018-08-03T08:36:06.940Z,101061.73
2018-08-03T08:38:35.033Z,101061.88
2018-08-03T08:41:03.278Z,101059.32
2018-08-03T08:43:31.402Z,101055.85
2018-08-03T08:45:59.400Z,101055.92
2018-08-03T08:48:27.454Z,101058.05
2018-08-03T08:50:55.591Z,101057.69
2018-08-03T08:53:23.737Z,101061.95
2018-08-03T08:55:51.792Z,101060.42
2018-08-03T08:58:19.848Z,101059.38
2018-08-03T09:00:47.934Z,101054.91
2018-08-03T09:03:16.027Z,101059.42
2018-08-03T09:05:44.744Z,101058.09
2018-08-03T09:08:12.819Z,101061.91
2018-08-03T09:10:40.875Z,101058.88
2018-08-03T09:13:08.986Z,101057.44
2018-08-03T09:15:37.541Z,101058.13
2018-08-03T09:18:06.415Z,101062.33
2018-08-03T09:20:34.465Z,101056.30
2018-08-03T09:23:02.504Z,101056.81
2018-08-03T09:25:30.551Z,101052.80
2018-08-03T09:27:58.638Z,101047.84
2018-08-03T09:30:27.802Z,101049.38
2018-08-03T09:32:55.866Z,101043.30
2018-08-03T09:35:23.919Z,101039.86
2018-08-03T09:37:51.975Z,101039.09
2018-08-03T09:40:20.104Z,101037.51
2018-08-03T09:42:48.237Z,101034.51
2018-08-03T09:45:16.400Z,101035.45
2018-08-03T09:47:44.599Z,101037.94
2018-08-03T09:50:12.833Z,101020.61
2018-08-03T09:52:41.154Z,101023.33
2018-08-03T09:55:09.930Z,101027.14
2018-08-03T09:57:38.125Z,101017.30
2018-08-03T10:00:06.295Z,101009.27
2018-08-03T10:02:34.488Z,101001.03
2018-08-03T10:05:02.669Z,100995.34
2018-08-03T10:07:30.864Z,100999.01
2018-08-03T10:09:59.024Z,100999.66
2018-08-03T10:12:27.133Z,101001.55
2018-08-03T10:14:55.190Z,100996.23
2018-08-03T10:17:23.247Z,100994.36
2018-08-03T10:19:51.319Z,100984.18
2018-08-03T10:22:19.393Z,100982.35
2018-08-03T10:24:47.435Z,100985.97
2018-08-03T10:27:15.496Z,100991.55
2018-08-03T10:29:43.605Z,100982.86
2018-08-03T10:32:11.627Z,100982.06
2018-08-03T10:34:41.780Z,100982.45
2018-08-03T10:37:09.837Z,100981.29
2018-08-03T10:39:37.897Z,100976.91
2018-08-03T10:42:05.969Z,100975.57
2018-08-03T10:44:34.083Z,100977.78
2018-08-03T10:47:02.195Z,100973.63
2018-08-03T10:49:30.212Z,100972.95
2018-08-03T10:51:58.300Z,100973.38
2018-08-03T10:54:26.384Z,100964.16
2018-08-03T10:56:54.432Z,100962.13
2018-08-03T10:59:22.531Z,100959.84
2018-08-03T11:01:50.563Z,100956.80
2018-08-03T11:04:18.716Z,100952.81
2018-08-03T11:06:46.815Z,100955.50
2018-08-03T11:09:14.825Z,100952.11
2018-08-03T11:11:42.915Z,100945.92
2018-08-03T11:14:10.990Z,100945.22
2018-08-03T11:16:39.099Z,100938.96
2018-08-03T11:22:11.082Z,100941.42
2018-08-03T11:24:39.123Z,100935.14
2018-08-03T11:27:07.178Z,100931.11
2018-08-03T11:29:35.263Z,100927.91
2018-08-03T11:32:03.322Z,100925.88
2018-08-03T11:34:31.391Z,100928.25
2018-08-03T11:36:59.463Z,100927.88
2018-08-03T11:39:27.983Z,100931.27
2018-08-03T11:41:56.052Z,100926.19
2018-08-03T11:44:24.139Z,100918.25
2018-08-03T11:46:53.975Z,100909.44
2018-08-03T11:49:22.472Z,100903.50
2018-08-03T11:51:50.645Z,100908.02
2018-08-03T11:54:18.716Z,100903.70
2018-08-03T11:56:46.771Z,100906.62
2018-08-03T11:59:14.851Z,100902.36
2018-08-03T12:01:42.889Z,100901.02
2018-08-03T12:04:11.594Z,100897.93
2018-08-03T12:06:39.686Z,100897.96
2018-08-03T12:09:08.180Z,100890.85
2018-08-03T12:11:36.261Z,100884.83
2018-08-03T12:14:04.323Z,100884.00
2018-08-03T12:16:32.378Z,100886.03
2018-08-03T12:19:01.046Z,100880.41
2018-08-03T12:21:29.117Z,100872.07
2018-08-03T12:23:57.315Z,100868.75
2018-08-03T12:26:25.307Z,100870.06
2018-08-03T12:28:53.398Z,100865.27
2018-08-03T12:31:21.488Z,100865.42
2018-08-03T12:33:49.566Z,100862.41
2018-08-03T12:36:17.661Z,100854.53
2018-08-03T12:38:45.738Z,100859.00
2018-08-03T12:41:14.244Z,100851.59
2018-08-03T12:43:42.349Z,100848.82
2018-08-03T12:46:10.536Z,100841.35
2018-08-03T12:48:38.591Z,100835.16
2018-08-03T12:51:06.607Z,100842.83
2018-08-03T12:53:34.744Z,100836.37
2018-08-03T12:56:02.878Z,100835.76
2018-08-03T12:58:30.928Z,100836.06
2018-08-03T13:00:59.034Z,100833.84
2018-08-03T13:03:27.091Z,100833.90
2018-08-03T13:05:55.180Z,100832.08
2018-08-03T13:08:23.586Z,100819.31
2018-08-03T13:10:51.324Z,100828.83
2018-08-03T13:13:19.495Z,100815.86
2018-08-03T13:15:47.554Z,100818.95
2018-08-03T13:18:15.664Z,100812.38
2018-08-03T13:20:43.922Z,100807.98
2018-08-03T13:23:12.032Z,100807.53
2018-08-03T13:25:40.112Z,100800.02
2018-08-03T13:28:08.194Z,100805.61
2018-08-03T13:30:36.333Z,100801.55
2018-08-03T13:36:00.188Z,100793.52
2018-08-03T13:38:28.279Z,100797.70
2018-08-03T13:40:56.359Z,100786.00
2018-08-03T13:43:24.450Z,100789.95
2018-08-03T13:45:52.532Z,100782.32
2018-08-03T13:48:20.674Z,100778.27
2018-08-03T13:50:48.815Z,100782.27
2018-08-03T13:53:16.920Z,100769.28
2018-08-03T13:55:45.092Z,100767.78
2018-08-03T13:58:13.272Z,100768.60
2018-08-03T14:00:41.455Z,100757.70
2018-08-03T14:03:09.547Z,100746.36
2018-08-03T14:05:37.933Z,100753.98
2018-08-03T14:08:06.078Z,100756.00
2018-08-03T14:10:34.869Z,100746.72
2018-08-03T14:13:03.748Z,100746.59
2018-08-03T14:15:31.921Z,100747.95
2018-08-03T14:18:00.123Z,100745.37
2018-08-03T14:20:28.367Z,100741.37
2018-08-03T14:22:56.568Z,100739.59
2018-08-03T14:25:31.473Z,100738.28
2018-08-03T14:27:59.719Z,100740.12
2018-08-03T14:30:27.894Z,100731.56
2018-08-03T14:32:56.101Z,100733.87
2018-08-03T14:35:24.348Z,100725.36
2018-08-03T14:37:52.573Z,100726.06
2018-08-03T14:40:20.704Z,100718.34
2018-08-03T14:42:49.577Z,100718.88
2018-08-03T14:45:17.701Z,100713.08
2018-08-03T14:47:45.783Z,100715.07
2018-08-03T14:50:13.940Z,100711.71
2018-08-03T14:52:41.969Z,100714.87
2018-08-03T14:55:10.136Z,100711.92
2018-08-03T14:57:38.317Z,100712.59
2018-08-03T15:00:07.810Z,100707.77
2018-08-03T15:02:35.959Z,100705.95
2018-08-03T15:05:04.124Z,100705.81
2018-08-03T15:07:32.240Z,100705.61
2018-08-03T15:10:00.431Z,100707.87
2018-08-03T15:12:28.524Z,100701.87
2018-08-03T15:14:56.599Z,100704.23
2018-08-03T15:17:24.646Z,100695.99
2018-08-03T15:19:52.726Z,100691.95
2018-08-03T15:22:20.791Z,100694.50
2018-08-03T15:24:48.855Z,100693.22
2018-08-03T15:27:16.989Z,100688.81
2018-08-03T15:29:45.294Z,100683.92
2018-08-03T15:32:13.418Z,100686.98
2018-08-03T15:34:41.628Z,100678.20
2018-08-03T15:37:09.852Z,100692.67
2018-08-03T15:39:38.010Z,100681.08
2018-08-03T15:42:06.217Z,100677.84
2018-08-03T15:44:34.323Z,100675.30
2018-08-03T15:47:02.520Z,100680.75
2018-08-03T15:49:31.104Z,100679.17
2018-08-03T15:51:59.198Z,100674.03
2018-08-03T15:54:27.299Z,100670.55
2018-08-03T15:56:55.429Z,100665.19
2018-08-03T15:59:23.510Z,100665.64
2018-08-03T16:01:51.595Z,100657.65
2018-08-03T16:04:19.703Z,100658.91
2018-08-03T16:06:47.780Z,100664.53
2018-08-03T16:09:15.868Z,100659.86
2018-08-03T16:11:44.823Z,100644.53
2018-08-03T16:14:13.108Z,100657.16
2018-08-03T16:16:41.170Z,100647.53
2018-08-03T16:19:09.224Z,100640.72
2018-08-03T16:21:37.307Z,100637.25
2018-08-03T16:24:05.418Z,100641.58
2018-08-03T16:26:33.548Z,100634.38
2018-08-03T16:29:01.623Z,100635.41
2018-08-03T16:31:29.736Z,100626.02
2018-08-03T16:33:57.910Z,100625.70
2018-08-03T16:36:25.998Z,100627.66
2018-08-03T16:38:54.108Z,100628.39
2018-08-03T16:41:22.125Z,100631.42
2018-08-03T16:43:50.186Z,100630.28
2018-08-03T16:46:18.307Z,100634.08
2018-08-03T16:48:46.390Z,100627.61
2018-08-03T16:51:14.477Z,100624.05
2018-08-03T16:53:42.543Z,100633.30
2018-08-03T16:56:10.603Z,100631.84
2018-08-03T16:58:38.823Z,100626.80
2018-08-03T17:01:06.939Z,100630.16
2018-08-03T17:03:35.012Z,100631.72
2018-08-03T17:06:03.080Z,100630.20
2018-08-03T17:08:31.179Z,100624.38
2018-08-03T17:10:59.522Z,100624.67
2018-08-03T17:13:27.575Z,100623.51
2018-08-03T17:15:55.631Z,100621.17
2018-08-03T17:18:23.711Z,100625.88
2018-08-03T17:20:52.752Z,100621.89
2018-08-03T17:23:20.864Z,100621.92
2018-08-03T17:25:49.022Z,100613.55
2018-08-03T17:28:17.083Z,100617.27
2018-08-03T17:30:45.687Z,100612.80
2018-08-03T17:33:14.003Z,100614.50
2018-08-03T17:35:42.056Z,100615.97
2018-08-03T17:38:10.138Z,100613.59
2018-08-03T17:40:38.231Z,100613.64
2018-08-03T17:43:06.386Z,100614.92
2018-08-03T17:45:34.521Z,100609.36
2018-08-03T17:48:02.579Z,100610.54
2018-08-03T17:50:30.640Z,100608.34
2018-08-03T17:52:59.586Z,100615.69
2018-08-03T17:55:27.809Z,100615.67
2018-08-03T17:57:55.963Z,100612.88
2018-08-03T18:00:24.541Z,100612.54
2018-08-03T18:02:55.742Z,100615.20
2018-08-03T18:05:24.713Z,100611.64
2018-08-03T18:07:52.820Z,100618.75
2018-08-03T18:10:20.948Z,100620.14
2018-08-03T18:12:49.878Z,100614.98
2018-08-03T18:15:18.020Z,100621.70
2018-08-03T18:17:46.207Z,100613.73
2018-08-03T18:20:14.326Z,100613.30
2018-08-03T18:22:42.506Z,100616.20
2018-08-03T18:25:10.655Z,100617.05
2018-08-03T18:27:38.850Z,100612.98
2018-08-03T18:30:07.257Z,100613.47
2018-08-03T18:32:35.364Z,100609.55
2018-08-03T18:35:03.524Z,100615.34
2018-08-03T18:37:31.659Z,100615.02
2018-08-03T18:39:59.873Z,100617.41
2018-08-03T18:42:28.260Z,100614.42
2018-08-03T18:44:56.384Z,100616.59
2018-08-03T18:47:24.575Z,100612.67
2018-08-03T18:49:52.697Z,100608.72
2018-08-03T18:52:21.645Z,100616.78
2018-08-03T18:54:49.818Z,100613.18
2018-08-03T18:57:17.960Z,100615.83
2018-08-03T18:59:46.106Z,100624.28
2018-08-03T19:02:14.274Z,100627.64
2018-08-03T19:04:42.503Z,100630.27
2018-08-03T19:07:10.663Z,100624.47
2018-08-03T19:09:39.613Z,100630.77
2018-08-03T19:12:08.987Z,100633.13
2018-08-03T19:14:37.140Z,100633.13
2018-08-03T19:17:05.298Z,100635.59
2018-08-03T19:19:33.409Z,100641.54
2018-08-03T19:22:01.691Z,100646.70
2018-08-03T19:24:29.787Z,100646.70
2018-08-03T19:26:57.918Z,100648.40
2018-08-03T19:29:26.037Z,100650.69
2018-08-03T19:31:54.237Z,100647.25
2018-08-03T19:34:23.741Z,100660.11
2018-08-03T19:36:51.889Z,100664.05
2018-08-03T19:39:19.989Z,100661.11
2018-08-03T19:41:48.181Z,100665.30
2018-08-03T19:44:16.295Z,100663.86
2018-08-03T19:46:44.425Z,100670.77
2018-08-03T19:49:12.546Z,100669.27
2018-08-03T19:51:40.644Z,100665.45
2018-08-03T19:54:08.824Z,100669.81
2018-08-03T19:56:36.931Z,100666.95
2018-08-03T19:59:05.154Z,100673.45
2018-08-03T20:01:33.886Z,100672.25
2018-08-03T20:04:02.028Z,100676.55
2018-08-03T20:06:30.139Z,100684.95
2018-08-03T20:08:58.283Z,100680.97
2018-08-03T20:11:26.513Z,100681.15
2018-08-03T20:13:54.724Z,100672.23
2018-08-03T20:16:22.802Z,100679.30
2018-08-03T20:18:50.942Z,100674.59
2018-08-03T20:21:19.091Z,100672.30
2018-08-03T20:23:47.279Z,100676.73
2018-08-03T20:26:15.426Z,100674.42
2018-08-03T20:28:43.551Z,100682.81
2018-08-03T20:31:11.640Z,100683.63
2018-08-03T20:33:39.801Z,100686.73
2018-08-03T20:36:07.930Z,100687.71
2018-08-03T20:38:36.043Z,100681.25
2018-08-03T20:41:04.171Z,100693.12
2018-08-03T20:43:32.336Z,100691.80
2018-08-03T20:46:00.455Z,100685.13
2018-08-03T20:48:28.662Z,100688.69
2018-08-03T20:50:56.789Z,100684.78
2018-08-03T20:53:24.868Z,100686.52
2018-08-03T20:55:53.002Z,100690.65
2018-08-03T20:58:21.156Z,100685.73
2018-08-03T21:00:49.279Z,100686.25
2018-08-03T21:03:17.425Z,100694.22
2018-08-03T21:05:45.540Z,100694.13
2018-08-03T21:08:13.632Z,100696.82
2018-08-03T21:10:41.771Z,100698.27
2018-08-03T21:13:09.950Z,100697.50
2018-08-03T21:15:38.071Z,100691.77
2018-08-03T21:18:06.306Z,100699.68
2018-08-03T21:20:34.391Z,100698.77
2018-08-03T21:23:02.505Z,100700.97
2018-08-03T21:25:30.628Z,100701.06
2018-08-03T21:27:58.753Z,100700.00
2018-08-03T21:30:26.939Z,100696.36
2018-08-03T21:32:56.053Z,100703.23
2018-08-03T21:35:24.773Z,100702.16
2018-08-03T21:37:55.835Z,100698.56
2018-08-03T21:40:35.055Z,100698.33
2018-08-03T21:43:03.577Z,100696.73
2018-08-03T21:45:43.907Z,100700.55
2018-08-03T21:51:03.606Z,100700.34
2018-08-03T21:53:37.726Z,100702.44
2018-08-03T21:56:08.168Z,100702.70
2018-08-03T21:59:03.091Z,100704.66
2018-08-03T22:01:39.223Z,100706.05
2018-08-03T22:04:18.933Z,100707.44
2018-08-03T22:09:30.599Z,100706.08
2018-08-03T22:14:43.117Z,100710.30
2018-08-03T22:17:17.492Z,100701.44
2018-08-03T22:19:56.081Z,100699.25
2018-08-03T22:22:27.555Z,100699.71
2018-08-03T22:24:58.381Z,100698.14
2018-08-03T22:27:27.132Z,100698.88
2018-08-03T22:29:58.063Z,100692.70
2018-08-03T22:32:27.600Z,100695.57
2018-08-03T22:34:56.242Z,100699.20
2018-08-03T22:37:25.381Z,100700.84
2018-08-03T22:39:54.472Z,100699.34
2018-08-03T22:42:42.841Z,100696.48
2018-08-03T22:45:12.874Z,100698.66
2018-08-03T22:47:43.549Z,100690.91
2018-08-03T22:50:13.994Z,100689.32
2018-08-03T22:52:43.028Z,100691.50
2018-08-03T22:55:11.450Z,100685.13
2018-08-03T22:57:40.992Z,100684.72
2018-08-03T23:00:15.184Z,100689.30
2018-08-03T23:02:51.706Z,100682.43
2018-08-03T23:05:19.778Z,100689.15
2018-08-03T23:07:47.859Z,100690.11
2018-08-03T23:10:16.121Z,100685.77
2018-08-03T23:12:44.168Z,100685.20
2018-08-03T23:15:12.265Z,100688.30
2018-08-03T23:17:40.308Z,100684.88
2018-08-03T23:20:08.408Z,100684.02
2018-08-03T23:22:36.459Z,100687.83
2018-08-03T23:25:04.531Z,100689.60
2018-08-03T23:27:32.588Z,100687.20
2018-08-03T23:30:00.672Z,100682.34
2018-08-03T23:32:28.819Z,100686.47
2018-08-03T23:34:56.871Z,100689.44
2018-08-03T23:37:24.919Z,100685.63
2018-08-03T23:39:52.980Z,100678.89
2018-08-03T23:42:21.028Z,100682.77
2018-08-03T23:44:49.141Z,100681.98
2018-08-03T23:47:17.221Z,100678.31
2018-08-03T23:49:45.282Z,100672.98
2018-08-03T23:52:13.332Z,100671.90
2018-08-03T23:54:41.425Z,100674.30
2018-08-03T23:57:09.493Z,100678.34
2018-08-03T23:59:37.556Z,100679.47
